Time;durP1;ratioP1;P1;durP2;ratioP2;P2;SDS_P1;SDS_P2;PMS_P1;PMS_P2;Temp;Humidity;BMP_temperature;BMP_pressure;BME280_temperature;BME280_humidity;BME280_pressure;Samples;Min_cycle;Max_cycle;Signal;HPM_P1;HPM_P2
2022/10/14 00:00:18;;;;;;;25.10;10.73;;;;;;;;;;4951306;28;20356;-67
2022/10/14 00:02:44;;;;;;;37.20;16.90;;;;;;;;;;4951219;28;20357;-67
2022/10/14 00:05:09;;;;;;;23.75;12.15;;;;;;;;;;4968163;28;20432;-67
2022/10/14 00:07:35;;;;;;;25.52;10.75;;;;;;;;;;4968472;28;20451;-67
2022/10/14 00:10:01;;;;;;;25.40;11.75;;;;;;;;;;4967950;28;20344;-67
2022/10/14 00:15:48;;;;;;;33.28;13.52;;;;;;;;;;4972207;28;20467;-67
2022/10/14 00:18:14;;;;;;;29.50;13.45;;;;;;;;;;4971940;28;20371;-67
2022/10/14 00:20:39;;;;;;;27.90;12.45;;;;;;;;;;4972254;28;20352;-67
2022/10/14 00:23:04;;;;;;;22.20;11.50;;;;;;;;;;4971835;28;20356;-67
2022/10/14 00:25:30;;;;;;;22.05;10.55;;;;;;;;;;4971644;28;20472;-67
2022/10/14 00:27:55;;;;;;;19.98;10.02;;;;;;;;;;4971592;28;20113;-67
2022/10/14 00:30:20;;;;;;;29.85;13.02;;;;;;;;;;4971906;28;20471;-67
2022/10/14 00:32:46;;;;;;;19.85;10.25;;;;;;;;;;4971561;28;20477;-67
2022/10/14 00:35:11;;;;;;;18.25;10.75;;;;;;;;;;4971781;28;20490;-67
2022/10/14 00:37:37;;;;;;;33.03;13.35;;;;;;;;;;4973772;28;20037;-67
2022/10/14 00:40:03;;;;;;;29.52;12.35;;;;;;;;;;4971998;28;20416;-67
2022/10/14 00:42:32;;;;;;;20.52;10.02;;;;;;;;;;4971423;28;20437;-67
2022/10/14 00:45:00;;;;;;;30.80;13.68;;;;;;;;;;4971420;28;20021;-67
2022/10/14 00:47:26;;;;;;;19.77;10.30;;;;;;;;;;4971234;28;20405;-67
2022/10/14 00:49:52;;;;;;;27.25;11.35;;;;;;;;;;4953659;28;20464;-67
2022/10/14 00:52:18;;;;;;;23.73;10.15;;;;;;;;;;4954312;28;20332;-67
2022/10/14 00:54:47;;;;;;;20.20;9.63;;;;;;;;;;4972610;28;20052;-67
2022/10/14 00:57:13;;;;;;;23.27;10.40;;;;;;;;;;4953148;28;20034;-67
2022/10/14 00:59:39;;;;;;;21.40;11.38;;;;;;;;;;4971156;28;20052;-67
2022/10/14 01:02:04;;;;;;;21.63;10.93;;;;;;;;;;4975241;28;20501;-67
2022/10/14 01:04:30;;;;;;;18.80;9.80;;;;;;;;;;4976219;28;20060;-67
2022/10/14 01:07:01;;;;;;;19.15;9.88;;;;;;;;;;4953505;28;20348;-67
2022/10/14 01:09:33;;;;;;;25.85;11.35;;;;;;;;;;4971635;28;20419;-67
2022/10/14 01:12:26;;;;;;;24.05;10.95;;;;;;;;;;4953086;28;20459;-67
2022/10/14 01:15:22;;;;;;;23.02;10.95;;;;;;;;;;4971104;28;20452;-67
2022/10/14 01:18:14;;;;;;;17.63;9.10;;;;;;;;;;4970719;28;20448;-67
2022/10/14 01:21:00;;;;;;;18.95;10.18;;;;;;;;;;4954809;28;20447;-67
2022/10/14 01:24:04;;;;;;;18.20;8.82;;;;;;;;;;4969502;28;20025;-67
2022/10/14 01:26:52;;;;;;;17.40;8.30;;;;;;;;;;4970428;28;20360;-67
2022/10/14 01:29:39;;;;;;;28.00;12.48;;;;;;;;;;4953350;28;20473;-67
2022/10/14 01:32:09;;;;;;;23.15;11.40;;;;;;;;;;4952805;28;20460;-67
2022/10/14 01:34:44;;;;;;;19.98;10.38;;;;;;;;;;4952774;28;20436;-67
2022/10/14 01:37:16;;;;;;;21.27;10.80;;;;;;;;;;4952685;28;20436;-67
2022/10/14 01:39:46;;;;;;;21.98;10.52;;;;;;;;;;4953024;28;20030;-67
2022/10/14 01:42:17;;;;;;;15.18;8.88;;;;;;;;;;4970501;28;20353;-67
2022/10/14 01:44:47;;;;;;;31.08;11.57;;;;;;;;;;4952440;28;20475;-67
2022/10/14 01:47:15;;;;;;;31.60;13.23;;;;;;;;;;4952441;28;20433;-67
2022/10/14 01:49:48;;;;;;;26.35;10.88;;;;;;;;;;4952727;28;20468;-67
2022/10/14 01:52:21;;;;;;;28.00;12.40;;;;;;;;;;4952489;28;20363;-67
2022/10/14 01:54:50;;;;;;;24.48;11.68;;;;;;;;;;4953486;28;20484;-67
2022/10/14 01:57:19;;;;;;;21.20;10.63;;;;;;;;;;4936549;28;20387;-67
2022/10/14 01:59:44;;;;;;;20.65;10.32;;;;;;;;;;4952236;28;20356;-67
2022/10/14 02:02:11;;;;;;;20.42;10.52;;;;;;;;;;4952200;28;20048;-67
2022/10/14 02:04:36;;;;;;;18.77;11.20;;;;;;;;;;4952384;28;20053;-67
2022/10/14 02:07:08;;;;;;;23.67;11.23;;;;;;;;;;4969839;28;20504;-67
2022/10/14 02:09:36;;;;;;;27.45;11.70;;;;;;;;;;4969737;28;20349;-67
2022/10/14 02:12:32;;;;;;;28.63;12.30;;;;;;;;;;4970278;28;20063;-67
2022/10/14 02:15:21;;;;;;;31.88;12.35;;;;;;;;;;4968252;28;20348;-67
2022/10/14 02:18:02;;;;;;;23.80;11.15;;;;;;;;;;4970216;28;20344;-67
2022/10/14 02:20:40;;;;;;;19.08;9.77;;;;;;;;;;4952061;28;20437;-67
2022/10/14 02:23:09;;;;;;;21.85;9.77;;;;;;;;;;4951745;28;20532;-67
2022/10/14 02:25:35;;;;;;;;;;;;;;;;;;4970468;28;20149;-67
2022/10/14 02:28:02;;;;;;;23.27;11.90;;;;;;;;;;4967978;28;20324;-67
2022/10/14 02:30:35;;;;;;;20.33;11.32;;;;;;;;;;4969613;28;20314;-67
2022/10/14 02:33:00;;;;;;;20.50;9.85;;;;;;;;;;4969496;28;20491;-67
2022/10/14 02:35:27;;;;;;;19.40;9.45;;;;;;;;;;4951880;28;20416;-67
2022/10/14 02:37:54;;;;;;;22.05;10.93;;;;;;;;;;4951553;28;20021;-67
2022/10/14 02:40:23;;;;;;;27.67;11.30;;;;;;;;;;4951476;28;20516;-67
2022/10/14 02:42:49;;;;;;;23.52;11.23;;;;;;;;;;4969851;28;20467;-67
2022/10/14 02:45:15;;;;;;;23.90;11.80;;;;;;;;;;4951363;28;20464;-67
2022/10/14 02:47:40;;;;;;;22.75;11.43;;;;;;;;;;4951172;28;20038;-67
2022/10/14 02:50:08;;;;;;;33.22;12.05;;;;;;;;;;4969110;28;20512;-67
2022/10/14 02:52:33;;;;;;;25.05;10.40;;;;;;;;;;4970128;28;20416;-67
2022/10/14 02:54:59;;;;;;;23.65;11.20;;;;;;;;;;4969214;28;20462;-67
2022/10/14 02:57:24;;;;;;;19.08;9.57;;;;;;;;;;4968944;28;20417;-67
2022/10/14 02:59:50;;;;;;;21.83;9.32;;;;;;;;;;4968817;28;20022;-67
2022/10/14 03:02:15;;;;;;;18.55;8.27;;;;;;;;;;4951152;28;20049;-67
2022/10/14 03:04:41;;;;;;;18.05;9.07;;;;;;;;;;4969862;28;20436;-67
2022/10/14 03:07:06;;;;;;;19.60;10.13;;;;;;;;;;4968773;28;20451;-67
2022/10/14 03:09:32;;;;;;;19.17;8.52;;;;;;;;;;4968726;28;20499;-67
2022/10/14 03:11:57;;;;;;;17.05;9.38;;;;;;;;;;4968709;28;20478;-67
2022/10/14 03:14:22;;;;;;;21.67;10.05;;;;;;;;;;4950911;28;20366;-67
2022/10/14 03:16:48;;;;;;;28.23;12.48;;;;;;;;;;4968712;28;20048;-67
2022/10/14 03:19:13;;;;;;;29.38;12.68;;;;;;;;;;4969776;28;20528;-67
2022/10/14 03:21:39;;;;;;;18.50;9.68;;;;;;;;;;4950763;28;20575;-67
2022/10/14 03:24:04;;;;;;;25.50;9.98;;;;;;;;;;4968579;28;20329;-69
2022/10/14 03:26:30;;;;;;;18.98;9.77;;;;;;;;;;4968261;28;20364;-67
2022/10/14 03:28:55;;;;;;;20.92;9.80;;;;;;;;;;4968510;28;20463;-67
2022/10/14 03:31:20;;;;;;;29.60;10.57;;;;;;;;;;4968401;28;20392;-67
2022/10/14 03:33:46;;;;;;;25.13;10.98;;;;;;;;;;4968355;28;20367;-67
2022/10/14 03:36:11;;;;;;;22.33;9.50;;;;;;;;;;4968514;28;20124;-67
2022/10/14 03:38:36;;;;;;;22.38;10.43;;;;;;;;;;4969281;28;20340;-67
2022/10/14 03:41:02;;;;;;;21.63;8.50;;;;;;;;;;4951366;28;20340;-67
2022/10/14 03:43:27;;;;;;;16.75;9.05;;;;;;;;;;4968770;28;20352;-67
2022/10/14 03:45:53;;;;;;;20.30;10.10;;;;;;;;;;4969765;28;20429;-67
2022/10/14 03:48:18;;;;;;;19.17;9.10;;;;;;;;;;4968281;28;20408;-67
2022/10/14 03:50:43;;;;;;;20.73;9.27;;;;;;;;;;4968738;28;20025;-67
2022/10/14 03:53:09;;;;;;;15.20;7.75;;;;;;;;;;4969169;28;20332;-67
2022/10/14 03:55:34;;;;;;;20.98;8.68;;;;;;;;;;4950699;28;20390;-67
2022/10/14 03:57:59;;;;;;;18.75;8.90;;;;;;;;;;4968063;28;20522;-67
2022/10/14 04:00:25;;;;;;;15.30;9.45;;;;;;;;;;4950848;28;20440;-67
2022/10/14 04:02:50;;;;;;;17.42;8.40;;;;;;;;;;4950161;28;20349;-67
2022/10/14 04:05:16;;;;;;;23.15;10.63;;;;;;;;;;4969448;28;20352;-67
2022/10/14 04:07:41;;;;;;;17.52;8.48;;;;;;;;;;4968486;28;20401;-67
2022/10/14 04:10:07;;;;;;;18.20;9.15;;;;;;;;;;4968161;28;20427;-67
2022/10/14 04:12:32;;;;;;;14.13;8.68;;;;;;;;;;4968717;28;20440;-67
2022/10/14 04:14:57;;;;;;;17.88;9.32;;;;;;;;;;4969041;28;20341;-67
2022/10/14 04:17:23;;;;;;;17.90;9.40;;;;;;;;;;4950390;28;20348;-67
2022/10/14 04:19:49;;;;;;;19.88;9.27;;;;;;;;;;4969027;28;20451;-67
2022/10/14 04:22:15;;;;;;;21.10;8.57;;;;;;;;;;4968514;28;20493;-67
2022/10/14 04:24:41;;;;;;;23.20;10.60;;;;;;;;;;4968779;28;20428;-67
2022/10/14 04:27:06;;;;;;;14.82;8.48;;;;;;;;;;4967639;28;20437;-67
2022/10/14 04:29:32;;;;;;;25.70;8.60;;;;;;;;;;4950233;28;20352;-67
2022/10/14 04:31:57;;;;;;;15.45;8.93;;;;;;;;;;4967877;28;20359;-67
2022/10/14 04:34:22;;;;;;;18.58;8.98;;;;;;;;;;4967725;28;20526;-67
2022/10/14 04:36:48;;;;;;;18.23;9.27;;;;;;;;;;4967888;28;20456;-67
2022/10/14 04:39:14;;;;;;;16.58;8.65;;;;;;;;;;4967736;28;20463;-67
2022/10/14 04:41:39;;;;;;;15.10;8.90;;;;;;;;;;4969281;28;20302;-67
2022/10/14 04:44:05;;;;;;;15.57;9.02;;;;;;;;;;4968281;28;20340;-67
2022/10/14 04:46:30;;;;;;;17.63;8.70;;;;;;;;;;4969602;28;20497;-67
2022/10/14 04:48:56;;;;;;;15.02;8.90;;;;;;;;;;4967526;28;20132;-67
2022/10/14 04:51:21;;;;;;;17.35;9.20;;;;;;;;;;4967840;28;20333;-67
2022/10/14 04:53:46;;;;;;;14.55;8.77;;;;;;;;;;4967751;28;20025;-67
2022/10/14 04:56:12;;;;;;;16.35;8.18;;;;;;;;;;4949776;28;20086;-67
2022/10/14 04:58:37;;;;;;;19.35;9.88;;;;;;;;;;4971166;28;20332;-67
2022/10/14 05:01:02;;;;;;;19.38;10.75;;;;;;;;;;4953340;28;20113;-67
2022/10/14 05:03:28;;;;;;;21.90;11.30;;;;;;;;;;4971374;28;20532;-67
2022/10/14 05:05:53;;;;;;;20.80;11.05;;;;;;;;;;4971252;28;20389;-67
2022/10/14 05:08:18;;;;;;;19.92;11.73;;;;;;;;;;4970925;28;20437;-67
2022/10/14 05:10:44;;;;;;;21.92;11.35;;;;;;;;;;4971232;28;20345;-67
2022/10/14 05:13:09;;;;;;;20.08;10.70;;;;;;;;;;4971136;28;20432;-67
2022/10/14 05:15:35;;;;;;;26.92;10.85;;;;;;;;;;4970843;28;20437;-67
2022/10/14 05:18:00;;;;;;;21.50;11.85;;;;;;;;;;4971457;28;20459;-67
2022/10/14 05:20:25;;;;;;;19.25;10.88;;;;;;;;;;4952890;28;20112;-67
2022/10/14 05:22:51;;;;;;;19.80;10.90;;;;;;;;;;4952980;28;20360;-67
2022/10/14 05:25:16;;;;;;;22.15;10.93;;;;;;;;;;4970688;28;20435;-67
2022/10/14 05:27:42;;;;;;;17.27;10.48;;;;;;;;;;4952945;28;20570;-67
2022/10/14 05:30:08;;;;;;;17.50;10.10;;;;;;;;;;4970547;28;20116;-67
2022/10/14 05:32:33;;;;;;;20.42;10.75;;;;;;;;;;4970529;28;20461;-67
2022/10/14 05:34:59;;;;;;;19.65;11.00;;;;;;;;;;4952771;28;20354;-67
2022/10/14 05:37:24;;;;;;;14.95;9.55;;;;;;;;;;4952825;28;20518;-67
2022/10/14 05:39:49;;;;;;;21.85;10.98;;;;;;;;;;4952690;28;20458;-67
2022/10/14 05:42:15;;;;;;;21.17;10.70;;;;;;;;;;4970860;28;20347;-67
2022/10/14 05:44:40;;;;;;;17.33;10.00;;;;;;;;;;4972727;28;20324;-67
2022/10/14 05:47:05;;;;;;;18.85;10.20;;;;;;;;;;4970253;28;20475;-67
2022/10/14 05:49:31;;;;;;;22.17;9.70;;;;;;;;;;4970389;28;20456;-67
2022/10/14 05:51:57;;;;;;;17.80;10.20;;;;;;;;;;4970389;28;20539;-67
2022/10/14 05:54:23;;;;;;;17.85;9.95;;;;;;;;;;4970201;28;20057;-67
2022/10/14 05:56:48;;;;;;;17.85;9.50;;;;;;;;;;4970130;28;20133;-67
2022/10/14 05:59:13;;;;;;;22.30;10.43;;;;;;;;;;4970684;28;20440;-67
2022/10/14 06:01:39;;;;;;;22.55;11.25;;;;;;;;;;4970314;28;20528;-67
2022/10/14 06:04:04;;;;;;;25.17;11.60;;;;;;;;;;4952267;28;20429;-67
2022/10/14 06:06:30;;;;;;;24.88;12.18;;;;;;;;;;4969973;28;20499;-67
2022/10/14 06:08:55;;;;;;;25.38;12.13;;;;;;;;;;4951423;28;20451;-67
2022/10/14 06:11:21;;;;;;;28.85;11.80;;;;;;;;;;4970719;28;20455;-67
2022/10/14 06:13:46;;;;;;;19.75;10.65;;;;;;;;;;4971850;28;20476;-67
2022/10/14 06:16:11;;;;;;;18.27;11.25;;;;;;;;;;4952018;28;20392;-67
2022/10/14 06:18:37;;;;;;;23.25;10.07;;;;;;;;;;4970244;28;20018;-67
2022/10/14 06:21:03;;;;;;;17.83;10.40;;;;;;;;;;4969741;28;20108;-67
2022/10/14 06:23:29;;;;;;;21.30;10.32;;;;;;;;;;4951939;28;20025;-67
2022/10/14 06:25:54;;;;;;;18.60;9.00;;;;;;;;;;4969420;28;20056;-67
2022/10/14 06:28:20;;;;;;;20.67;10.73;;;;;;;;;;4970939;28;20331;-67
2022/10/14 06:30:53;;;;;;;25.05;10.57;;;;;;;;;;4952360;28;20433;-67
2022/10/14 06:33:18;;;;;;;27.75;13.77;;;;;;;;;;4951784;28;20474;-67
2022/10/14 06:35:43;;;;;;;31.20;15.68;;;;;;;;;;4970554;28;20325;-67
2022/10/14 06:38:09;;;;;;;36.13;16.85;;;;;;;;;;4970233;28;20413;-67
2022/10/14 06:40:35;;;;;;;45.80;19.17;;;;;;;;;;4970832;28;20025;-67
2022/10/14 06:43:00;;;;;;;46.55;21.27;;;;;;;;;;4969413;28;20448;-67
2022/10/14 06:45:26;;;;;;;25.15;14.27;;;;;;;;;;4969221;28;20463;-67
2022/10/14 06:47:51;;;;;;;22.13;11.50;;;;;;;;;;4952400;28;20029;-67
2022/10/14 06:50:17;;;;;;;20.17;10.30;;;;;;;;;;4951362;28;20387;-67
2022/10/14 06:52:44;;;;;;;21.45;10.93;;;;;;;;;;4969089;28;20516;-67
2022/10/14 06:55:10;;;;;;;18.13;10.20;;;;;;;;;;4951965;28;20436;-67
2022/10/14 06:57:35;;;;;;;22.02;10.52;;;;;;;;;;4951369;28;20506;-67
2022/10/14 07:00:01;;;;;;;18.17;10.10;;;;;;;;;;4969280;28;20392;-67
2022/10/14 07:02:26;;;;;;;16.63;10.02;;;;;;;;;;4969853;28;20309;-67
2022/10/14 07:04:51;;;;;;;16.27;9.13;;;;;;;;;;4969010;28;20429;-67
2022/10/14 07:07:16;;;;;;;14.35;8.82;;;;;;;;;;4968896;28;20538;-67
2022/10/14 07:09:42;;;;;;;14.90;8.25;;;;;;;;;;4968896;28;20429;-67
2022/10/14 07:12:07;;;;;;;20.75;10.18;;;;;;;;;;4969230;28;20464;-67
2022/10/14 07:14:32;;;;;;;20.20;8.73;;;;;;;;;;4969622;28;20452;-67
2022/10/14 07:16:59;;;;;;;18.55;11.25;;;;;;;;;;4968492;28;20467;-67
2022/10/14 07:19:24;;;;;;;18.90;9.50;;;;;;;;;;4968688;28;20112;-67
2022/10/14 07:21:49;;;;;;;19.00;9.77;;;;;;;;;;4967724;28;20459;-67
2022/10/14 07:24:15;;;;;;;16.80;9.60;;;;;;;;;;4969706;28;20535;-67
2022/10/14 07:26:40;;;;;;;19.08;10.57;;;;;;;;;;4968212;28;20464;-67
2022/10/14 07:29:06;;;;;;;21.60;10.60;;;;;;;;;;4968306;28;20480;-67
2022/10/14 07:31:32;;;;;;;16.55;9.70;;;;;;;;;;4968423;28;20092;-67
2022/10/14 07:33:58;;;;;;;17.83;9.77;;;;;;;;;;4968402;28;20083;-67
2022/10/14 07:36:24;;;;;;;18.85;10.20;;;;;;;;;;4950746;28;20422;-67
2022/10/14 07:38:49;;;;;;;18.88;9.38;;;;;;;;;;4969161;28;20322;-67
2022/10/14 07:41:17;;;;;;;19.95;9.65;;;;;;;;;;4968630;28;20451;-67
2022/10/14 07:43:44;;;;;;;17.05;10.32;;;;;;;;;;4968360;28;20428;-67
2022/10/14 07:46:11;;;;;;;25.85;12.80;;;;;;;;;;4968310;28;20403;-67
2022/10/14 07:48:37;;;;;;;18.35;11.07;;;;;;;;;;4968090;28;20441;-67
2022/10/14 07:51:04;;;;;;;19.48;11.73;;;;;;;;;;4970409;28;20025;-67
2022/10/14 07:53:29;;;;;;;18.25;11.50;;;;;;;;;;4951147;28;20421;-67
2022/10/14 07:55:58;;;;;;;19.85;11.10;;;;;;;;;;4969327;28;20456;-67
2022/10/14 07:58:25;;;;;;;;;;;;;;;;;;4968571;28;20455;-67
2022/10/14 08:00:50;;;;;;;17.42;10.05;;;;;;;;;;4968275;28;19948;-67
2022/10/14 08:03:17;;;;;;;19.00;10.15;;;;;;;;;;4950407;28;20527;-67
2022/10/14 08:05:42;;;;;;;23.27;13.15;;;;;;;;;;4950601;28;20025;-67
2022/10/14 08:08:08;;;;;;;17.27;10.35;;;;;;;;;;4968078;28;20026;-67
2022/10/14 08:10:34;;;;;;;22.27;10.63;;;;;;;;;;4950274;28;20384;-67
2022/10/14 08:13:00;;;;;;;14.40;8.02;;;;;;;;;;4967948;28;20429;-67
2022/10/14 08:15:28;;;;;;;12.13;7.93;;;;;;;;;;4949991;28;20341;-67
2022/10/14 08:17:54;;;;;;;10.90;6.82;;;;;;;;;;4968295;28;20402;-68
2022/10/14 08:20:19;;;;;;;17.85;8.65;;;;;;;;;;4950296;28;20085;-67
2022/10/14 08:22:44;;;;;;;11.93;7.15;;;;;;;;;;4967930;28;20306;-67
2022/10/14 08:25:10;;;;;;;12.13;7.05;;;;;;;;;;4967687;28;20421;-67
2022/10/14 08:27:35;;;;;;;11.63;7.13;;;;;;;;;;4949832;28;20344;-67
2022/10/14 08:30:01;;;;;;;12.50;7.35;;;;;;;;;;4968007;28;20348;-67
2022/10/14 08:32:26;;;;;;;11.57;7.40;;;;;;;;;;4970705;28;20022;-67
2022/10/14 08:34:51;;;;;;;14.48;8.52;;;;;;;;;;4971800;28;20052;-67
2022/10/14 08:37:17;;;;;;;15.15;8.70;;;;;;;;;;4971579;28;20052;-67
2022/10/14 08:39:42;;;;;;;11.30;7.32;;;;;;;;;;4971609;28;20464;-67
2022/10/14 08:42:15;;;;;;;15.90;8.70;;;;;;;;;;4971421;28;20305;-67
2022/10/14 08:44:54;;;;;;;17.10;8.70;;;;;;;;;;4972366;28;20392;-67
2022/10/14 08:47:22;;;;;;;14.10;8.02;;;;;;;;;;4971453;28;20100;-67
2022/10/14 08:50:13;;;;;;;15.03;7.63;;;;;;;;;;4971819;28;20383;-67
2022/10/14 08:52:41;;;;;;;10.52;7.22;;;;;;;;;;4953417;28;20738;-67
2022/10/14 08:55:31;;;;;;;12.10;7.40;;;;;;;;;;4953362;28;20055;-67
2022/10/14 08:58:02;;;;;;;11.20;7.20;;;;;;;;;;4953512;28;20311;-67
2022/10/14 09:00:29;;;;;;;11.65;7.07;;;;;;;;;;4953234;28;20487;-67
2022/10/14 09:02:55;;;;;;;13.02;7.28;;;;;;;;;;4971149;28;20340;-67
2022/10/14 09:05:22;;;;;;;12.02;6.55;;;;;;;;;;4972078;28;20458;-67
2022/10/14 09:07:54;;;;;;;9.25;6.00;;;;;;;;;;4954149;28;20336;-67
2022/10/14 09:10:32;;;;;;;12.50;7.15;;;;;;;;;;4953410;28;20589;-67
2022/10/14 09:13:02;;;;;;;11.40;6.70;;;;;;;;;;4953301;28;20026;-68
2022/10/14 09:15:37;;;;;;;11.77;6.45;;;;;;;;;;4954202;28;20372;-67
2022/10/14 09:18:21;;;;;;;11.20;6.20;;;;;;;;;;4953212;28;20421;-67
2022/10/14 09:20:47;;;;;;;10.60;6.40;;;;;;;;;;4971549;28;20373;-67
2022/10/14 09:23:19;;;;;;;12.63;6.60;;;;;;;;;;4970689;28;20344;-67
2022/10/14 09:25:53;;;;;;;15.48;6.88;;;;;;;;;;4970414;28;20468;-67
2022/10/14 09:28:18;;;;;;;15.88;7.22;;;;;;;;;;4971027;28;20396;-67
2022/10/14 09:30:44;;;;;;;12.88;7.13;;;;;;;;;;4953336;28;20347;-67
2022/10/14 09:33:19;;;;;;;11.98;6.80;;;;;;;;;;4952727;28;20345;-67
2022/10/14 09:35:45;;;;;;;12.15;6.88;;;;;;;;;;4970425;28;20432;-67
2022/10/14 09:38:11;;;;;;;12.88;7.60;;;;;;;;;;4952969;28;20502;-67
2022/10/14 09:40:40;;;;;;;13.55;7.95;;;;;;;;;;4970661;28;20048;-67
2022/10/14 09:43:08;;;;;;;11.32;6.55;;;;;;;;;;4952032;28;20424;-66
2022/10/14 09:45:46;;;;;;;15.77;7.13;;;;;;;;;;4970206;28;20465;-67
2022/10/14 09:48:38;;;;;;;10.68;6.75;;;;;;;;;;4972419;28;20340;-67
2022/10/14 09:51:17;;;;;;;11.75;6.85;;;;;;;;;;4970355;28;20475;-67
2022/10/14 09:53:49;;;;;;;10.20;6.60;;;;;;;;;;4952785;28;20313;-67
2022/10/14 09:56:14;;;;;;;10.10;6.10;;;;;;;;;;4970285;28;20343;-67
2022/10/14 09:58:52;;;;;;;12.00;6.72;;;;;;;;;;4952891;28;20384;-67
2022/10/14 10:01:20;;;;;;;12.80;7.35;;;;;;;;;;4952525;28;20087;-67
2022/10/14 10:03:47;;;;;;;9.73;5.95;;;;;;;;;;4952508;28;20034;-67
2022/10/14 10:06:15;;;;;;;11.70;6.80;;;;;;;;;;4970194;28;20372;-67
2022/10/14 10:08:57;;;;;;;11.35;6.82;;;;;;;;;;4951977;28;20381;-67
2022/10/14 10:11:36;;;;;;;14.57;6.40;;;;;;;;;;4970023;28;20520;-67
2022/10/14 10:14:22;;;;;;;10.00;6.05;;;;;;;;;;4952294;28;20334;-67
2022/10/14 10:16:51;;;;;;;10.90;6.53;;;;;;;;;;4952239;28;20432;-67
2022/10/14 10:19:20;;;;;;;12.13;7.05;;;;;;;;;;4951936;28;20464;-67
2022/10/14 10:21:46;;;;;;;12.02;7.40;;;;;;;;;;4969832;28;20451;-67
2022/10/14 10:24:22;;;;;;;12.70;6.95;;;;;;;;;;4952242;28;20359;-67
2022/10/14 10:26:48;;;;;;;12.95;6.90;;;;;;;;;;4967661;28;20487;-67
2022/10/14 10:29:27;;;;;;;10.90;6.15;;;;;;;;;;4971191;28;20486;-67
2022/10/14 10:32:16;;;;;;;12.15;7.30;;;;;;;;;;4989093;28;20100;-67
2022/10/14 10:35:00;;;;;;;10.57;5.97;;;;;;;;;;4971139;28;20474;-67
2022/10/14 10:37:27;;;;;;;11.95;7.20;;;;;;;;;;4971144;28;20328;-67
2022/10/14 10:40:11;;;;;;;13.23;7.93;;;;;;;;;;4971666;28;20459;-67
2022/10/14 10:42:42;;;;;;;14.23;6.32;;;;;;;;;;4989026;28;20478;-66
2022/10/14 10:45:36;;;;;;;12.25;6.50;;;;;;;;;;4988966;28;20436;-67
2022/10/14 10:48:21;;;;;;;13.40;6.13;;;;;;;;;;4989409;28;20179;-67
2022/10/14 10:50:52;;;;;;;11.15;6.60;;;;;;;;;;4989944;28;20029;-67
2022/10/14 10:54:01;;;;;;;10.80;7.07;;;;;;;;;;4971187;28;20447;-67
2022/10/14 10:56:40;;;;;;;10.68;5.82;;;;;;;;;;4918958;28;20441;-66
2022/10/14 10:59:29;;;;;;;12.20;6.75;;;;;;;;;;4988687;28;20178;-67
2022/10/14 11:02:02;;;;;;;11.98;6.93;;;;;;;;;;4988697;28;21712;-67
2022/10/14 11:04:42;;;;;;;9.13;6.25;;;;;;;;;;4988480;28;20529;-67
2022/10/14 11:13:21;;;;;;;11.18;5.85;;;;;;;;;;4988949;28;20533;-67
2022/10/14 11:15:49;;;;;;;11.07;6.22;;;;;;;;;;4988568;28;20044;-67
2022/10/14 11:18:31;;;;;;;10.60;5.72;;;;;;;;;;4954271;28;20351;-67
2022/10/14 11:21:33;;;;;;;8.73;5.82;;;;;;;;;;4988265;28;20498;-67
2022/10/14 11:24:05;;;;;;;11.13;6.22;;;;;;;;;;4989520;28;20033;-67
2022/10/14 11:27:02;;;;;;;13.68;7.03;;;;;;;;;;4974972;28;20464;-67
2022/10/14 11:30:05;;;;;;;9.35;5.88;;;;;;;;;;4968220;28;20459;-67
2022/10/14 11:32:45;;;;;;;12.60;6.45;;;;;;;;;;4952068;28;20353;-67
2022/10/14 11:35:21;;;;;;;11.50;6.43;;;;;;;;;;4968415;28;20456;-67
2022/10/14 11:38:08;;;;;;;10.50;6.30;;;;;;;;;;4968329;28;20060;-67
2022/10/14 11:40:40;;;;;;;10.25;6.72;;;;;;;;;;4969405;28;20053;-67
2022/10/14 11:43:24;;;;;;;8.93;6.13;;;;;;;;;;4969540;28;20029;-66
2022/10/14 11:45:55;;;;;;;9.77;6.57;;;;;;;;;;4968324;28;20430;-66
2022/10/14 11:48:33;;;;;;;12.07;6.80;;;;;;;;;;4968274;28;20539;-67
2022/10/14 11:51:30;;;;;;;13.17;7.07;;;;;;;;;;4950435;28;20357;-67
2022/10/14 11:54:23;;;;;;;10.23;6.03;;;;;;;;;;4967741;28;20793;-66
2022/10/14 11:56:55;;;;;;;12.02;6.13;;;;;;;;;;4970247;28;20360;-67
2022/10/14 11:59:26;;;;;;;9.82;6.10;;;;;;;;;;4968756;28;20443;-67
2022/10/14 12:01:57;;;;;;;9.10;5.68;;;;;;;;;;4967900;28;20333;-67
2022/10/14 12:04:35;;;;;;;9.55;6.10;;;;;;;;;;4950608;28;20376;-67
2022/10/14 12:07:18;;;;;;;8.70;5.82;;;;;;;;;;4951616;28;20468;-66
2022/10/14 12:09:48;;;;;;;12.07;6.68;;;;;;;;;;4954496;28;20468;-67
2022/10/14 12:12:16;;;;;;;15.02;6.93;;;;;;;;;;4954142;28;20467;-66
2022/10/14 12:14:43;;;;;;;13.05;6.65;;;;;;;;;;4954281;28;20351;-67
2022/10/14 12:17:23;;;;;;;10.18;6.32;;;;;;;;;;4954097;28;20401;-67
2022/10/14 12:19:50;;;;;;;13.13;6.95;;;;;;;;;;4954105;28;20167;-67
2022/10/14 12:22:24;;;;;;;8.70;5.75;;;;;;;;;;4971854;28;20455;-67
2022/10/14 12:25:00;;;;;;;7.90;6.07;;;;;;;;;;4953980;28;20507;-67
2022/10/14 12:27:27;;;;;;;12.98;7.22;;;;;;;;;;4953903;28;20460;-66
2022/10/14 12:29:57;;;;;;;11.57;6.97;;;;;;;;;;4971995;28;20429;-67
2022/10/14 12:32:23;;;;;;;11.02;6.63;;;;;;;;;;4973371;28;20305;-67
2022/10/14 12:34:56;;;;;;;11.15;6.80;;;;;;;;;;4972196;28;20344;-67
2022/10/14 12:37:30;;;;;;;12.73;6.75;;;;;;;;;;4953867;28;20523;-67
2022/10/14 12:40:21;;;;;;;11.43;6.50;;;;;;;;;;4953716;28;20469;-66
2022/10/14 12:42:47;;;;;;;10.90;6.82;;;;;;;;;;4972018;28;20435;-66
2022/10/14 12:45:18;;;;;;;9.60;6.95;;;;;;;;;;4971392;28;20416;-66
2022/10/14 12:47:44;;;;;;;9.70;6.18;;;;;;;;;;4953644;28;20436;-66
2022/10/14 12:50:12;;;;;;;9.75;6.32;;;;;;;;;;4971614;28;20106;-66
2022/10/14 12:52:38;;;;;;;11.40;6.88;;;;;;;;;;4971435;28;20475;-66
2022/10/14 12:55:12;;;;;;;10.88;6.30;;;;;;;;;;4954034;28;20416;-67
2022/10/14 12:57:37;;;;;;;12.15;6.85;;;;;;;;;;4953340;28;20041;-66
2022/10/14 13:00:21;;;;;;;9.60;5.95;;;;;;;;;;4971356;28;20456;-66
2022/10/14 13:02:47;;;;;;;15.13;7.53;;;;;;;;;;4971147;28;20439;-67
2022/10/14 13:05:34;;;;;;;13.38;6.75;;;;;;;;;;4953364;28;20436;-67
2022/10/14 13:08:18;;;;;;;10.80;5.88;;;;;;;;;;4970974;28;20452;-67
2022/10/14 13:10:52;;;;;;;12.32;6.78;;;;;;;;;;4971371;28;20452;-67
2022/10/14 13:13:40;;;;;;;10.57;6.50;;;;;;;;;;4971548;28;20337;-67
2022/10/14 13:16:24;;;;;;;10.47;6.50;;;;;;;;;;4971211;28;20372;-67
2022/10/14 13:18:56;;;;;;;11.23;6.28;;;;;;;;;;4971370;28;20445;-67
2022/10/14 13:21:32;;;;;;;9.88;6.38;;;;;;;;;;4971752;28;20444;-66
2022/10/14 13:24:00;;;;;;;11.68;6.68;;;;;;;;;;4970839;28;20518;-67
2022/10/14 13:26:52;;;;;;;10.90;6.15;;;;;;;;;;4965578;28;20456;-67
2022/10/14 13:29:28;;;;;;;10.80;7.13;;;;;;;;;;4952933;28;20072;-66
2022/10/14 13:32:12;;;;;;;11.07;6.55;;;;;;;;;;4992016;28;20510;-66
2022/10/14 13:34:46;;;;;;;9.77;6.55;;;;;;;;;;4990073;28;20490;-66
2022/10/14 13:37:56;;;;;;;11.05;6.57;;;;;;;;;;4991181;28;20368;-67
2022/10/14 13:40:33;;;;;;;11.75;7.13;;;;;;;;;;4945288;28;20479;-67
2022/10/14 13:43:01;;;;;;;11.07;7.10;;;;;;;;;;4973929;28;20453;-67
2022/10/14 13:45:39;;;;;;;9.65;5.82;;;;;;;;;;4972039;28;20456;-67
2022/10/14 13:48:05;;;;;;;9.52;6.30;;;;;;;;;;4989956;28;20463;-66
2022/10/14 13:50:35;;;;;;;12.60;7.20;;;;;;;;;;4972108;28;20467;-67
2022/10/14 13:53:05;;;;;;;11.07;6.70;;;;;;;;;;4972109;28;20436;-67
2022/10/14 13:55:42;;;;;;;11.65;6.80;;;;;;;;;;4971895;28;20470;-66
2022/10/14 13:58:07;;;;;;;12.32;6.97;;;;;;;;;;4989671;28;20482;-66
2022/10/14 14:00:34;;;;;;;12.60;7.20;;;;;;;;;;4989771;28;20473;-67
2022/10/14 14:03:03;;;;;;;9.93;6.20;;;;;;;;;;4972035;28;20383;-67
2022/10/14 14:05:31;;;;;;;12.75;6.85;;;;;;;;;;4972888;28;20029;-66
2022/10/14 14:07:57;;;;;;;14.37;7.73;;;;;;;;;;4971684;28;20470;-67
2022/10/14 14:10:23;;;;;;;11.77;6.47;;;;;;;;;;4990451;28;20455;-66
2022/10/14 14:12:49;;;;;;;12.27;7.00;;;;;;;;;;4972367;28;20339;-67
2022/10/14 14:15:26;;;;;;;12.55;7.10;;;;;;;;;;4990049;28;20051;-66
2022/10/14 14:17:52;;;;;;;15.45;7.95;;;;;;;;;;4990591;28;20490;-67
2022/10/14 14:20:22;;;;;;;11.13;7.05;;;;;;;;;;4990343;28;20408;-67
2022/10/14 14:22:47;;;;;;;12.23;6.90;;;;;;;;;;4989256;28;20545;-67
2022/10/14 14:25:26;;;;;;;13.57;7.40;;;;;;;;;;4986888;28;20547;-66
2022/10/14 14:27:59;;;;;;;14.60;7.20;;;;;;;;;;4951546;28;20376;-66
2022/10/14 14:30:30;;;;;;;11.65;7.50;;;;;;;;;;4951380;28;20503;-66
2022/10/14 14:32:58;;;;;;;10.18;7.30;;;;;;;;;;4951960;28;20367;-66
2022/10/14 14:35:23;;;;;;;10.98;6.68;;;;;;;;;;4969466;28;20056;-66
2022/10/14 14:37:48;;;;;;;11.43;7.03;;;;;;;;;;4951758;28;20535;-67
2022/10/14 14:40:21;;;;;;;14.30;6.32;;;;;;;;;;4971031;28;20331;-66
2022/10/14 14:42:50;;;;;;;12.55;6.93;;;;;;;;;;4970393;28;20543;-66
2022/10/14 14:45:19;;;;;;;14.20;7.78;;;;;;;;;;4969374;28;20432;-66
2022/10/14 14:47:47;;;;;;;12.18;7.35;;;;;;;;;;4969328;28;20476;-66
2022/10/14 14:50:15;;;;;;;12.93;7.30;;;;;;;;;;4951329;28;20404;-66
2022/10/14 14:52:42;;;;;;;13.35;7.90;;;;;;;;;;4968940;28;20021;-66